首页
METAR-TAF:

METAR-TAF

机场 :

奥赫里德, 馬其頓共和國

纬度: 41-07N, 经度: 020-48E, 海拔: 760米

当前天气观测

该预报发布于4小时和26分钟前的13:30 UTC
风速4节,风向东南
温度 24°C
湿度 29%
气压 1009 hPa
能见度10公里或以上
散云层高于4000英尺, 塔状积云.

METAR: LWOH 051330Z 14004KT 9999 SCT040TCU 24/05 Q1009

时间: 19:56 (17:56 UTC)

预报

该预报发布于26分钟前的17:30 UTC
预报有效从05日的 18点(UTC)到 06日的 18点(UTC)
风速8节,风向南转南东
能见度10公里或以上
散云层高于4000英尺
多云层高于9000英尺
短暂存在
从 06日的 03点(UTC)到 06日的 15点(UTC)
风速15节,风向多变
少量云层高于3000英尺, 积雨云.
多云层高于4000英尺
雷暴, 雨

TAF: LWOH 051730Z 0518/0618 16008KT 9999 SCT040 BKN090 TEMPO 0603/0615 VRB15KT TSRA FEW030CB BKN040

超过4000个机场的气象观测和天气预报(METAR&TAF报告)。

可查询的气象台以黄色和红色小点在地图上表示。

将鼠标移到小点上方,可查看气象台名称。

然后点击查看天气观测和预报。

如需切换地图:点击带黑十字的绿色按钮放大地图;点击带横线的绿色按钮缩小地图;或者点击绿色箭头查看邻近地区的地图。


METAR-TAF: